Time;durP1;ratioP1;P1;durP2;ratioP2;P2;SDS_P1;SDS_P2;PMS_P1;PMS_P2;Temp;Humidity;BMP_temperature;BMP_pressure;BME280_temperature;BME280_humidity;BME280_pressure;Samples;Min_cycle;Max_cycle;Signal;HPM_P1;HPM_P2
2022/12/28 00:01:47;;;;;;;9.00;2.72;;;;;;;5.76;92.31;101602.59;4802117;29;20048;-79
2022/12/28 00:04:14;;;;;;;5.40;2.85;;;;;;;5.77;92.27;101596.50;4803437;29;20058;-79
2022/12/28 00:06:41;;;;;;;8.63;2.60;;;;;;;5.78;91.84;101597.38;4803303;29;20063;-78
2022/12/28 00:09:11;;;;;;;6.78;2.65;;;;;;;5.79;92.20;101594.75;4803792;29;20053;-79
2022/12/28 00:11:39;;;;;;;6.20;2.50;;;;;;;5.79;92.38;101576.44;4807161;29;20047;-79
2022/12/28 00:14:06;;;;;;;7.50;2.90;;;;;;;5.80;92.44;101557.25;4804275;29;20058;-80
2022/12/28 00:16:38;;;;;;;6.07;2.45;;;;;;;5.80;92.47;101549.41;4810441;29;20518;-83
2022/12/28 00:19:13;;;;;;;6.68;2.60;;;;;;;5.82;92.31;101554.63;4812453;29;20051;-83
2022/12/28 00:21:42;;;;;;;8.75;2.85;;;;;;;5.80;92.82;101533.72;4808544;29;20032;-83
2022/12/28 00:24:24;;;;;;;6.15;2.83;;;;;;;5.83;92.98;101533.72;4799541;29;20047;-82
2022/12/28 00:26:51;;;;;;;6.22;2.88;;;;;;;5.81;93.21;101519.75;4818699;29;20463;-84
2022/12/28 00:29:20;;;;;;;5.80;2.67;;;;;;;5.82;93.18;101518.00;4802142;29;20071;-81
2022/12/28 00:31:49;;;;;;;8.00;2.97;;;;;;;5.83;93.18;101515.41;4806300;29;20505;-85
2022/12/28 00:34:16;;;;;;;5.95;2.80;;;;;;;5.84;93.33;101518.88;4805502;29;20047;-82
2022/12/28 00:36:44;;;;;;;3.83;2.60;;;;;;;5.87;93.07;101511.03;4803624;29;20549;-84
2022/12/28 00:39:31;;;;;;;5.28;2.90;;;;;;;5.87;93.14;101511.91;4801450;29;20171;-79
2022/12/28 00:41:58;;;;;;;4.88;2.90;;;;;;;5.87;93.32;101498.81;4786092;29;20043;-79
2022/12/28 00:44:25;;;;;;;6.85;2.60;;;;;;;5.90;93.33;101483.13;4802438;29;20097;-79
2022/12/28 00:46:52;;;;;;;7.75;2.88;;;;;;;5.89;93.05;101486.59;4802186;29;20123;-79
2022/12/28 00:49:19;;;;;;;4.75;2.58;;;;;;;5.91;93.23;101483.97;4794264;29;20149;-80
2022/12/28 00:51:46;;;;;;;4.00;2.53;;;;;;;5.91;93.29;101478.75;4808035;29;20051;-81
2022/12/28 00:54:13;;;;;;;8.80;2.60;;;;;;;5.90;93.15;101479.66;4813511;29;20837;-81
2022/12/28 00:56:41;;;;;;;6.70;2.80;;;;;;;5.87;92.98;101470.03;4811459;29;20059;-80
2022/12/28 00:59:10;;;;;;;5.90;2.70;;;;;;;5.87;93.20;101470.03;4812351;29;20677;-82
2022/12/28 01:01:37;;;;;;;7.43;2.63;;;;;;;5.87;93.03;101464.78;4813822;29;20112;-80
2022/12/28 01:04:06;;;;;;;7.13;2.58;;;;;;;5.88;93.03;101463.06;4813026;29;20963;-80
2022/12/28 01:06:33;;;;;;;6.60;2.60;;;;;;;5.87;93.41;101472.66;4814367;29;20051;-81
2022/12/28 01:09:00;;;;;;;8.85;2.90;;;;;;;5.91;93.41;101463.03;4804618;29;20055;-81
2022/12/28 01:11:29;;;;;;;5.80;2.55;;;;;;;5.95;93.75;101474.41;4789805;29;20043;-76
2022/12/28 01:14:00;;;;;;;6.70;2.75;;;;;;;5.97;93.54;101465.69;4804111;29;20051;-76
2022/12/28 01:16:32;;;;;;;5.45;2.50;;;;;;;6.00;93.62;101459.59;4786600;29;20051;-76
2022/12/28 01:19:03;;;;;;;5.35;2.70;;;;;;;6.02;93.79;101455.22;4802016;29;20051;-79
2022/12/28 01:21:33;;;;;;;5.78;3.05;;;;;;;6.05;93.58;101453.47;4786584;29;20094;-79
2022/12/28 01:24:04;;;;;;;6.28;3.05;;;;;;;6.09;93.89;101464.81;4788668;29;20662;-78
2022/12/28 01:26:32;;;;;;;8.45;3.33;;;;;;;6.12;93.49;101456.06;4800709;29;20039;-77
2022/12/28 01:28:59;;;;;;;7.00;2.80;;;;;;;6.14;93.29;101459.56;4785291;29;20050;-78
2022/12/28 01:31:26;;;;;;;4.70;2.85;;;;;;;6.16;93.16;101447.34;4803262;29;20079;-80
2022/12/28 01:33:55;;;;;;;8.63;3.17;;;;;;;6.17;93.17;101438.63;4802852;29;20128;-77
2022/12/28 01:36:26;;;;;;;4.35;2.55;;;;;;;6.20;93.28;101422.91;4801133;29;20055;-78
2022/12/28 01:39:01;;;;;;;6.57;2.65;;;;;;;6.22;92.90;101422.03;4800607;29;20126;-78
2022/12/28 01:41:35;;;;;;;6.25;2.80;;;;;;;6.21;92.79;101419.38;4800786;29;20052;-79
2022/12/28 01:44:03;;;;;;;6.78;2.83;;;;;;;6.18;92.88;101412.41;4802328;29;20079;-77
2022/12/28 01:47:01;;;;;;;6.35;3.00;;;;;;;6.18;92.86;101399.34;4801599;29;20051;-77
2022/12/28 01:49:41;;;;;;;6.80;3.03;;;;;;;6.19;92.87;101401.06;4798254;29;20063;-77
2022/12/28 01:52:40;;;;;;;6.78;2.95;;;;;;;6.20;92.73;101397.59;4801971;29;20055;-77
2022/12/28 01:55:12;;;;;;;5.88;2.42;;;;;;;6.21;92.84;101394.09;4783129;29;20494;-81
2022/12/28 01:58:00;;;;;;;9.40;2.80;;;;;;;6.26;92.70;101391.47;4785647;29;20135;-77
2022/12/28 02:00:28;;;;;;;6.55;2.80;;;;;;;6.28;92.46;101381.84;4800684;29;20059;-79
2022/12/28 02:03:03;;;;;;;6.55;2.97;;;;;;;6.33;92.27;101376.59;4786456;29;20047;-79
2022/12/28 02:05:41;;;;;;;6.30;3.17;;;;;;;6.35;92.55;101369.63;4792917;29;20410;-80
2022/12/28 02:08:25;;;;;;;5.22;3.08;;;;;;;6.40;92.25;101340.78;4794494;29;20054;-81
2022/12/28 02:10:53;;;;;;;6.93;2.97;;;;;;;6.42;92.22;101346.84;4799920;29;20051;-81
2022/12/28 02:13:23;;;;;;;6.57;2.67;;;;;;;6.46;92.20;101344.22;4802647;29;20036;-81
2022/12/28 02:15:50;;;;;;;5.78;2.65;;;;;;;6.49;92.05;101341.59;4799376;29;20039;-81
2022/12/28 02:18:20;;;;;;;4.88;2.70;;;;;;;6.53;91.92;101345.94;4800426;29;20221;-81
2022/12/28 02:21:12;;;;;;;6.38;2.67;;;;;;;6.57;91.77;101336.31;4800565;29;20543;-80
2022/12/28 02:24:35;;;;;;;4.50;2.58;;;;;;;6.60;91.77;101322.31;4797949;29;20055;-80
2022/12/28 02:27:20;;;;;;;5.82;2.63;;;;;;;6.63;91.55;101319.69;4752280;29;20219;-86
2022/12/28 02:30:06;;;;;;;7.45;2.80;;;;;;;6.67;91.94;101310.91;4804492;29;20047;-84
2022/12/28 02:32:58;;;;;;;5.50;2.42;;;;;;;6.69;91.51;101303.91;4806334;29;20047;-86
2022/12/28 02:35:47;;;;;;;6.40;2.55;;;;;;;6.71;91.61;101294.31;4787635;29;20066;-85
2022/12/28 02:38:45;;;;;;;4.57;2.47;;;;;;;6.74;91.50;101283.81;4803930;29;20063;-84
2022/12/28 02:41:19;;;;;;;6.20;2.70;;;;;;;6.79;91.40;101278.53;4800533;29;20055;-86
2022/12/28 02:43:47;;;;;;;4.72;2.53;;;;;;;6.79;91.10;101284.63;4802345;29;20534;-83
2022/12/28 02:52:40;;;;;;;6.78;2.60;;;;;;;6.88;91.29;101272.31;4793510;29;20083;-85
2022/12/28 02:59:21;;;;;;;3.85;2.00;;;;;;;6.98;91.12;101242.53;4795167;29;20058;-82
2022/12/28 03:02:08;;;;;;;5.13;2.45;;;;;;;7.01;90.77;101262.63;4792020;29;20064;-82
2022/12/28 03:04:52;;;;;;;4.88;2.65;;;;;;;6.99;91.20;101239.03;4784956;29;20127;-80
2022/12/28 03:10:38;;;;;;;5.43;2.70;;;;;;;7.02;91.18;101235.53;4803301;29;20514;-80
2022/12/28 03:16:14;;;;;;;5.57;2.72;;;;;;;7.05;91.48;101233.75;4805987;29;20087;-80
2022/12/28 03:33:09;;;;;;;5.55;3.00;;;;;;;6.98;92.96;101213.69;4813199;29;20047;-79
2022/12/28 03:35:48;;;;;;;5.88;2.92;;;;;;;6.96;93.28;101221.59;4804930;29;20113;-79
2022/12/28 03:38:27;;;;;;;4.60;2.90;;;;;;;6.93;93.41;101210.28;4788817;29;20047;-84
2022/12/28 03:41:33;;;;;;;6.55;3.40;;;;;;;6.94;93.74;101212.00;4787943;29;20055;-80
2022/12/28 03:44:25;;;;;;;7.28;3.25;;;;;;;6.89;94.13;101206.81;4807018;29;20054;-82
2022/12/28 03:47:10;;;;;;;5.32;3.00;;;;;;;6.89;94.33;101214.69;4796085;29;20051;-85
2022/12/28 03:49:38;;;;;;;6.90;2.90;;;;;;;6.90;94.62;101216.41;4794579;29;20104;-81
2022/12/28 03:52:08;;;;;;;5.07;3.00;;;;;;;6.92;94.71;101204.13;4803094;29;20307;-77
2022/12/28 03:54:35;;;;;;;6.10;3.42;;;;;;;6.93;94.96;101199.78;4786606;29;20130;-77
2022/12/28 03:57:02;;;;;;;5.30;3.05;;;;;;;6.93;95.09;101203.25;4786604;29;20082;-77
2022/12/28 03:59:36;;;;;;;6.03;3.13;;;;;;;6.94;95.27;101191.03;4785437;29;20134;-78
2022/12/28 04:02:05;;;;;;;4.70;3.30;;;;;;;6.96;95.36;101184.88;4785077;29;20130;-77
2022/12/28 04:04:33;;;;;;;6.53;3.50;;;;;;;6.92;95.60;101180.56;4786620;29;20581;-76
2022/12/28 04:07:00;;;;;;;5.97;3.40;;;;;;;6.93;95.89;101184.91;4802362;29;20043;-76
2022/12/28 04:09:28;;;;;;;6.85;3.00;;;;;;;6.93;95.88;101184.06;4791737;29;20128;-75
2022/12/28 04:11:55;;;;;;;6.95;3.17;;;;;;;6.94;96.26;101180.56;4801173;29;20078;-76
2022/12/28 04:14:33;;;;;;;4.43;2.90;;;;;;;6.94;96.43;101181.41;4786684;29;20783;-79
2022/12/28 04:17:04;;;;;;;5.00;2.85;;;;;;;6.97;96.45;101185.75;4788749;29;20047;-80
2022/12/28 04:19:31;;;;;;;5.63;3.05;;;;;;;6.98;96.66;101182.25;4786589;29;20055;-80
2022/12/28 04:21:59;;;;;;;4.88;2.92;;;;;;;6.98;96.77;101177.00;4797473;29;20078;-79
2022/12/28 04:24:26;;;;;;;7.07;2.75;;;;;;;6.99;96.85;101177.00;4788635;29;20059;-80
2022/12/28 04:26:54;;;;;;;4.40;2.90;;;;;;;7.03;96.80;101169.97;4788532;29;20039;-80
2022/12/28 04:29:22;;;;;;;6.30;3.08;;;;;;;7.05;96.81;101168.22;4785709;29;20043;-80
2022/12/28 04:31:59;;;;;;;4.18;3.00;;;;;;;7.06;96.89;101172.56;4789327;29;20063;-81
2022/12/28 04:34:26;;;;;;;5.30;2.90;;;;;;;7.08;96.83;101169.94;4803412;29;20069;-81
2022/12/28 04:37:02;;;;;;;5.70;3.03;;;;;;;7.10;96.72;101166.41;4788990;29;20078;-83
2022/12/28 04:39:29;;;;;;;5.45;2.90;;;;;;;7.12;97.00;101166.41;4791501;29;20051;-79
2022/12/28 04:42:16;;;;;;;6.53;3.10;;;;;;;7.13;97.05;101171.63;4802010;29;20629;-81
2022/12/28 04:44:43;;;;;;;6.75;2.85;;;;;;;7.14;97.24;101165.50;4800750;29;20116;-79
2022/12/28 04:47:12;;;;;;;8.15;3.00;;;;;;;7.14;97.28;101162.88;4803773;29;20058;-81
2022/12/28 04:49:39;;;;;;;5.68;3.20;;;;;;;7.14;97.38;101156.75;4800041;29;20059;-79
2022/12/28 04:52:06;;;;;;;6.80;3.28;;;;;;;7.15;97.54;101156.75;4802073;29;20484;-81
2022/12/28 04:54:33;;;;;;;6.25;3.45;;;;;;;7.18;97.67;101142.72;4801091;29;20064;-79
2022/12/28 04:57:00;;;;;;;6.40;3.65;;;;;;;7.19;97.57;101149.69;4802734;29;20044;-79
2022/12/28 04:59:27;;;;;;;7.25;3.67;;;;;;;7.19;97.89;101138.34;4799283;29;20062;-79
2022/12/28 05:01:54;;;;;;;4.60;3.25;;;;;;;7.19;97.96;101138.34;4800181;29;20047;-80
2022/12/28 05:04:21;;;;;;;6.80;3.58;;;;;;;7.20;98.13;101137.44;4801970;29;20048;-82
2022/12/28 05:06:49;;;;;;;8.85;3.60;;;;;;;7.20;98.29;101129.59;4790521;29;20107;-78
2022/12/28 05:09:18;;;;;;;4.78;3.78;;;;;;;7.20;98.37;101146.19;4801781;29;20047;-81
2022/12/28 05:11:45;;;;;;;6.47;3.78;;;;;;;7.19;98.36;101139.22;4802552;29;20515;-76
2022/12/28 05:14:12;;;;;;;5.93;3.80;;;;;;;7.20;98.75;101135.72;4801774;29;20043;-76
2022/12/28 05:16:39;;;;;;;5.90;3.60;;;;;;;7.23;98.73;101140.91;4801025;29;20031;-76
2022/12/28 05:19:07;;;;;;;7.50;3.90;;;;;;;7.22;98.93;101144.44;4802107;29;20044;-80
2022/12/28 05:21:34;;;;;;;6.88;4.22;;;;;;;7.25;99.18;101138.28;4802461;29;20094;-79
2022/12/28 05:24:02;;;;;;;5.93;3.08;;;;;;;7.27;98.97;101133.91;4803410;29;20595;-79
2022/12/28 05:26:29;;;;;;;5.97;3.50;;;;;;;7.27;99.23;101134.75;4801179;29;20088;-78
2022/12/28 05:28:57;;;;;;;5.70;3.50;;;;;;;7.30;99.44;101136.44;4802196;29;20059;-80
2022/12/28 05:31:25;;;;;;;7.55;3.80;;;;;;;7.33;99.44;101132.91;4800187;29;20130;-79
2022/12/28 05:33:53;;;;;;;9.13;3.53;;;;;;;7.33;99.64;101141.66;4798485;29;20455;-79
2022/12/28 05:36:26;;;;;;;5.50;3.25;;;;;;;7.35;99.58;101142.53;4801952;29;20054;-79
2022/12/28 05:38:55;;;;;;;5.35;3.47;;;;;;;7.34;99.44;101143.41;4803842;29;20047;-79
2022/12/28 05:41:26;;;;;;;6.60;3.42;;;;;;;7.35;99.63;101141.66;4800088;29;20131;-79
2022/12/28 05:43:57;;;;;;;7.97;3.35;;;;;;;7.35;99.61;101134.66;4800459;29;20109;-79
2022/12/28 05:46:31;;;;;;;6.07;3.53;;;;;;;7.38;100.00;101131.13;4802439;29;20566;-77
2022/12/28 05:48:59;;;;;;;7.57;3.20;;;;;;;7.36;99.98;101133.78;4799748;29;20051;-80
2022/12/28 05:51:30;;;;;;;6.60;3.22;;;;;;;7.37;100.00;101124.13;4801964;29;20082;-81
2022/12/28 05:53:59;;;;;;;5.43;3.28;;;;;;;7.37;99.91;101130.28;4798879;29;20067;-81
2022/12/28 05:56:28;;;;;;;3.67;2.75;;;;;;;7.38;100.00;101126.72;4803774;29;20048;-84
2022/12/28 05:59:01;;;;;;;5.10;3.30;;;;;;;7.40;100.00;101117.09;4801701;29;20047;-77
2022/12/28 06:01:34;;;;;;;5.63;3.38;;;;;;;7.41;100.00;101117.97;4798317;29;20047;-80
2022/12/28 06:04:12;;;;;;;4.95;3.03;;;;;;;7.41;100.00;101113.59;4799470;29;20126;-78
2022/12/28 06:06:39;;;;;;;5.15;3.03;;;;;;;7.44;100.00;101115.28;4802266;29;20126;-77
2022/12/28 06:09:06;;;;;;;4.32;2.78;;;;;;;7.45;100.00;101117.91;4797811;29;20075;-79
2022/12/28 06:11:34;;;;;;;6.15;2.88;;;;;;;7.45;100.00;101115.28;4794593;29;20215;-78
2022/12/28 06:14:02;;;;;;;4.68;2.72;;;;;;;7.48;100.00;101103.03;4801767;29;20081;-80
2022/12/28 06:16:33;;;;;;;5.85;2.75;;;;;;;7.50;100.00;101102.13;4802533;29;20051;-82
2022/12/28 06:19:08;;;;;;;3.80;2.97;;;;;;;7.46;100.00;101096.06;4800629;29;20096;-77
2022/12/28 06:21:38;;;;;;;4.32;2.85;;;;;;;7.49;100.00;101095.13;4801584;29;20095;-79
2022/12/28 06:24:07;;;;;;;4.25;2.60;;;;;;;7.52;100.00;101097.72;4801293;29;20046;-78
2022/12/28 06:26:36;;;;;;;3.63;2.55;;;;;;;7.51;100.00;101093.38;4797997;29;20055;-79
2022/12/28 06:29:04;;;;;;;3.55;2.40;;;;;;;7.55;100.00;101089.78;4798874;29;20051;-75
2022/12/28 06:31:35;;;;;;;4.20;2.80;;;;;;;7.58;100.00;101088.91;4800397;29;20415;-75
2022/12/28 06:34:07;;;;;;;3.95;2.42;;;;;;;7.59;100.00;101087.97;4799254;29;20090;-79
2022/12/28 06:36:41;;;;;;;3.55;2.50;;;;;;;7.60;100.00;101092.34;4801679;29;20051;-78
2022/12/28 06:39:11;;;;;;;4.72;2.70;;;;;;;7.61;100.00;101084.47;4799647;29;20171;-77
2022/12/28 06:41:39;;;;;;;4.32;2.30;;;;;;;7.64;100.00;101086.19;4801697;29;20518;-77
2022/12/28 06:44:10;;;;;;;3.72;2.28;;;;;;;7.66;100.00;101084.41;4801646;29;20766;-77
2022/12/28 06:46:38;;;;;;;5.22;2.50;;;;;;;7.69;100.00;101096.63;4785903;29;20047;-77
2022/12/28 06:49:05;;;;;;;3.13;2.70;;;;;;;7.70;100.00;101087.84;4800384;29;20052;-79
2022/12/28 06:51:39;;;;;;;5.25;2.45;;;;;;;7.71;100.00;101077.31;4790515;29;20378;-79
2022/12/28 06:54:09;;;;;;;3.58;3.05;;;;;;;7.73;100.00;101087.81;4805308;29;20054;-78
2022/12/28 06:56:36;;;;;;;4.57;2.80;;;;;;;7.73;100.00;101072.94;4799143;29;20059;-76
2022/12/28 06:59:05;;;;;;;6.32;2.55;;;;;;;7.77;100.00;101081.63;4797616;29;20469;-76
2022/12/28 07:01:43;;;;;;;5.80;2.60;;;;;;;7.79;100.00;101079.84;4799119;29;20058;-78
2022/12/28 07:04:11;;;;;;;4.18;2.22;;;;;;;7.82;100.00;101082.44;4800571;29;20089;-73
2022/12/28 07:06:42;;;;;;;3.22;2.30;;;;;;;7.95;100.00;101082.22;4801856;29;20097;-74
2022/12/28 07:09:15;;;;;;;3.97;2.30;;;;;;;8.06;100.00;101088.16;4796778;29;20043;-73
2022/12/28 07:11:43;;;;;;;6.63;2.38;;;;;;;8.13;100.00;101083.69;4800554;29;20051;-75
2022/12/28 07:14:11;;;;;;;2.92;2.00;;;;;;;8.20;100.00;101085.31;4803536;29;20166;-75
2022/12/28 07:16:39;;;;;;;4.50;2.15;;;;;;;8.26;100.00;101081.72;4797812;29;20051;-73
2022/12/28 07:19:05;;;;;;;3.47;2.30;;;;;;;8.33;100.00;101084.22;4791992;29;20105;-75
2022/12/28 07:21:38;;;;;;;5.35;2.22;;;;;;;8.40;100.00;101087.63;4802327;29;20136;-75
2022/12/28 07:24:07;;;;;;;2.70;2.30;;;;;;;8.42;100.00;101084.97;4800967;29;20530;-79
2022/12/28 07:26:37;;;;;;;2.90;2.15;;;;;;;8.36;100.00;101078.94;4795445;29;20697;-78
2022/12/28 07:29:07;;;;;;;3.00;2.00;;;;;;;8.30;100.00;101080.78;4798498;29;20118;-78
2022/12/28 07:31:38;;;;;;;3.28;2.00;;;;;;;8.24;100.00;101079.13;4801319;29;20499;-76
2022/12/28 07:34:14;;;;;;;4.28;2.00;;;;;;;8.19;100.00;101075.72;4804808;29;20477;-75
2022/12/28 07:36:41;;;;;;;2.95;1.83;;;;;;;8.24;100.00;101076.50;4798531;29;20088;-72
2022/12/28 07:39:09;;;;;;;3.72;1.83;;;;;;;8.33;100.00;101068.47;4796478;29;20047;-71
2022/12/28 07:41:36;;;;;;;3.78;1.70;;;;;;;8.43;100.00;101084.94;4794018;29;20070;-72
2022/12/28 07:44:06;;;;;;;2.63;1.58;;;;;;;8.49;100.00;101078.75;4801297;29;20044;-74
2022/12/28 07:46:35;;;;;;;5.20;1.80;;;;;;;8.51;99.97;101080.47;4801409;29;20572;-71
2022/12/28 07:49:03;;;;;;;3.03;1.40;;;;;;;8.54;99.87;101079.53;4799516;29;20059;-72
2022/12/28 07:51:36;;;;;;;2.03;1.38;;;;;;;8.55;99.40;101089.16;4783724;29;20176;-72
2022/12/28 07:54:05;;;;;;;1.60;1.50;;;;;;;8.54;99.37;101084.78;4783960;29;20048;-72
2022/12/28 07:56:33;;;;;;;1.55;1.45;;;;;;;8.52;99.49;101087.44;4782387;29;20696;-73
2022/12/28 07:59:03;;;;;;;2.75;1.52;;;;;;;8.54;99.48;101082.16;4784463;29;20095;-72
2022/12/28 08:01:33;;;;;;;3.92;1.70;;;;;;;8.57;99.56;101090.00;4777605;29;20049;-71
2022/12/28 08:04:08;;;;;;;1.67;1.50;;;;;;;8.60;99.39;101083.81;4778275;29;20044;-72
2022/12/28 08:06:40;;;;;;;1.98;1.30;;;;;;;8.55;99.08;101087.38;4779155;29;20064;-78
2022/12/28 08:09:10;;;;;;;1.45;1.35;;;;;;;8.50;98.70;101081.34;4772967;29;20113;-76
2022/12/28 08:11:44;;;;;;;1.63;1.40;;;;;;;8.42;98.75;101077.06;4777435;29;20044;-76
2022/12/28 08:14:11;;;;;;;4.50;1.60;;;;;;;8.34;99.03;101072.84;4782292;29;20043;-76
2022/12/28 08:16:42;;;;;;;2.13;1.45;;;;;;;8.32;99.16;101079.88;4790136;29;20554;-75
2022/12/28 08:19:10;;;;;;;2.45;1.70;;;;;;;8.29;99.36;101077.28;4775893;29;20052;-78
2022/12/28 08:21:43;;;;;;;1.85;1.50;;;;;;;8.28;99.42;101072.94;4780864;29;20054;-77
2022/12/28 08:24:18;;;;;;;1.90;1.70;;;;;;;8.27;99.39;101063.34;4781994;29;20522;-75
2022/12/28 08:26:47;;;;;;;1.88;1.70;;;;;;;8.26;99.59;101069.47;4785919;29;20130;-77
2022/12/28 08:29:19;;;;;;;1.92;1.73;;;;;;;8.27;99.60;101075.59;4784307;29;20075;-76
2022/12/28 08:31:47;;;;;;;2.08;1.65;;;;;;;8.23;99.84;101070.41;4780717;29;20060;-75
2022/12/28 08:34:19;;;;;;;2.63;1.80;;;;;;;8.19;99.78;101073.97;4781434;29;20058;-79
2022/12/28 08:36:47;;;;;;;2.85;2.10;;;;;;;8.21;99.96;101073.94;4778233;29;20043;-76
2022/12/28 08:39:14;;;;;;;5.53;2.13;;;;;;;8.23;100.00;101074.78;4776026;29;20116;-76
2022/12/28 08:41:41;;;;;;;5.70;2.20;;;;;;;8.21;100.00;101066.03;4779425;29;20044;-76
2022/12/28 08:44:08;;;;;;;4.47;2.10;;;;;;;8.21;100.00;101066.94;4775211;29;20048;-76
2022/12/28 08:46:36;;;;;;;4.65;2.58;;;;;;;8.23;100.00;101077.41;4771888;29;20051;-74
2022/12/28 08:49:04;;;;;;;99.07;52.08;;;;;;;8.22;100.00;101075.66;4783087;29;20102;-78
2022/12/28 08:51:35;;;;;;;67.70;55.90;;;;;;;8.23;100.00;101069.53;4800019;29;20071;-74
2022/12/28 08:54:03;;;;;;;59.15;46.00;;;;;;;8.24;100.00;101073.88;4801166;29;20055;-78
2022/12/28 08:56:34;;;;;;;82.47;66.00;;;;;;;8.25;100.00;101065.13;4800891;29;20047;-79
2022/12/28 08:59:08;;;;;;;5.50;4.43;;;;;;;8.27;100.00;101072.97;4800623;29;20135;-76
2022/12/28 09:01:38;;;;;;;4.45;3.95;;;;;;;8.28;100.00;101074.69;4801587;29;20108;-75
2022/12/28 09:04:15;;;;;;;9.20;6.93;;;;;;;8.32;100.00;101065.88;4802566;29;20839;-78
2022/12/28 09:06:43;;;;;;;18.05;14.70;;;;;;;8.31;100.00;101069.41;4800883;29;20075;-76
2022/12/28 09:09:14;;;;;;;14.43;12.98;;;;;;;8.34;100.00;101074.59;4801574;29;20561;-77
2022/12/28 09:11:42;;;;;;;8.00;7.20;;;;;;;8.33;100.00;101073.72;4801608;29;20853;-79
2022/12/28 09:14:12;;;;;;;9.27;8.00;;;;;;;8.37;100.00;101071.91;4801602;29;20051;-80
2022/12/28 09:16:50;;;;;;;5.07;3.42;;;;;;;8.37;100.00;101083.28;4799667;29;20625;-79
2022/12/28 09:19:17;;;;;;;4.18;3.78;;;;;;;8.41;100.00;101078.84;4803008;29;20055;-81
2022/12/28 09:21:47;;;;;;;6.78;2.97;;;;;;;8.42;100.00;101072.72;4804293;29;20078;-77
2022/12/28 09:24:14;;;;;;;6.22;3.88;;;;;;;8.43;100.00;101077.06;4803442;29;20105;-79
2022/12/28 09:26:42;;;;;;;7.78;4.55;;;;;;;8.46;100.00;101079.63;4799545;29;20055;-78
2022/12/28 09:29:14;;;;;;;4.65;3.47;;;;;;;8.48;100.00;101075.25;4798987;29;20507;-79
2022/12/28 09:31:43;;;;;;;4.15;3.75;;;;;;;8.49;100.00;101070.88;4796442;29;20037;-82
2022/12/28 09:34:12;;;;;;;5.38;3.28;;;;;;;8.49;100.00;101069.09;4791730;29;20786;-81
2022/12/28 09:37:00;;;;;;;6.53;2.97;;;;;;;8.58;100.00;101078.59;4800635;29;20075;-80
2022/12/28 09:39:28;;;;;;;7.75;5.90;;;;;;;8.59;100.00;101074.19;4795380;29;20044;-79
2022/12/28 09:42:16;;;;;;;4.50;3.88;;;;;;;8.61;100.00;101068.00;4794014;29;20050;-82
2022/12/28 09:44:59;;;;;;;4.70;4.22;;;;;;;8.62;100.00;101059.22;4804472;29;20108;-81
2022/12/28 09:47:50;;;;;;;5.25;2.53;;;;;;;8.62;100.00;101072.38;4804714;29;20137;-81
2022/12/28 09:50:17;;;;;;;3.33;1.90;;;;;;;8.63;100.00;101063.59;4790247;29;20068;-82
2022/12/28 09:53:11;;;;;;;1.88;1.50;;;;;;;8.66;100.00;101053.03;4802653;29;20043;-81
2022/12/28 09:55:52;;;;;;;3.58;1.50;;;;;;;8.68;100.00;101053.88;4803923;29;20541;-81
2022/12/28 09:58:21;;;;;;;3.55;1.50;;;;;;;8.70;100.00;101059.09;4806180;29;20097;-82
2022/12/28 10:00:53;;;;;;;2.95;1.60;;;;;;;8.73;100.00;101056.41;4803881;29;20126;-83
2022/12/28 10:03:44;;;;;;;2.40;1.70;;;;;;;8.76;99.96;101060.72;4796753;29;20058;-82
2022/12/28 10:06:19;;;;;;;2.78;1.63;;;;;;;8.77;100.00;101057.22;4785772;29;20056;-85
2022/12/28 10:08:53;;;;;;;2.35;1.70;;;;;;;8.79;99.88;101058.91;4801542;29;20481;-84
2022/12/28 10:11:28;;;;;;;3.78;1.77;;;;;;;8.82;99.70;101055.34;4801463;29;20897;-83
2022/12/28 10:13:59;;;;;;;4.55;1.80;;;;;;;8.82;100.00;101053.59;4790915;29;20051;-84
2022/12/28 10:16:31;;;;;;;2.60;1.75;;;;;;;8.88;99.52;101055.25;4785213;29;20051;-83
2022/12/28 10:19:00;;;;;;;4.47;1.90;;;;;;;8.90;99.73;101049.94;4793038;29;20051;-83
2022/12/28 10:21:33;;;;;;;3.10;1.55;;;;;;;8.92;99.51;101040.28;4806394;29;20055;-84
2022/12/28 10:24:06;;;;;;;4.15;1.90;;;;;;;8.95;99.22;101027.91;4794453;29;20050;-83
2022/12/28 10:26:56;;;;;;;4.82;2.10;;;;;;;8.98;98.94;101038.38;4804488;29;20047;-80
2022/12/28 10:29:26;;;;;;;3.03;1.60;;;;;;;9.01;98.95;101040.94;4781528;29;20090;-82
2022/12/28 10:32:00;;;;;;;3.20;1.67;;;;;;;9.06;98.86;101034.72;4803404;29;20098;-85
2022/12/28 10:34:32;;;;;;;74.80;35.88;;;;;;;9.10;98.60;101039.03;4792563;29;20050;-83
2022/12/28 10:37:16;;;;;;;16.77;11.77;;;;;;;9.12;98.43;101031.94;4789949;29;20493;-82
2022/12/28 10:39:55;;;;;;;9.82;5.93;;;;;;;9.11;98.24;101022.31;4794403;29;20136;-85
2022/12/28 10:42:34;;;;;;;17.60;12.68;;;;;;;9.12;98.44;101026.69;4803300;29;20074;-83
2022/12/28 10:45:18;;;;;;;3.53;2.72;;;;;;;9.12;98.44;101027.56;4793233;29;20063;-82
2022/12/28 10:47:51;;;;;;;5.97;4.80;;;;;;;9.10;98.53;101018.00;4808562;29;20050;-84
2022/12/28 10:50:38;;;;;;;14.85;12.13;;;;;;;9.11;98.74;101010.06;4811246;29;20051;-83
2022/12/28 10:53:25;;;;;;;7.55;5.90;;;;;;;9.13;99.04;101008.25;4806190;29;20044;-85
2022/12/28 10:56:12;;;;;;;5.18;2.97;;;;;;;9.15;98.60;101010.84;4801223;29;20105;-82
2022/12/28 10:58:48;;;;;;;4.75;2.83;;;;;;;9.15;98.75;101024.00;4794531;29;20915;-82
2022/12/28 11:01:27;;;;;;;4.60;4.20;;;;;;;9.13;98.69;101010.91;4809688;29;20086;-84
2022/12/28 11:03:55;;;;;;;3.75;2.55;;;;;;;9.13;98.81;101012.66;4808951;29;20081;-82
2022/12/28 11:06:26;;;;;;;5.05;3.25;;;;;;;9.11;98.57;101004.78;4801967;29;20039;-85
2022/12/28 11:09:16;;;;;;;5.97;3.05;;;;;;;9.12;98.87;101003.03;4797083;29;20126;-84
2022/12/28 11:11:46;;;;;;;5.55;3.78;;;;;;;9.14;98.69;101003.84;4803044;29;20053;-84
2022/12/28 11:14:27;;;;;;;7.68;5.90;;;;;;;9.13;98.59;101004.75;4810391;29;20062;-84
2022/12/28 11:16:54;;;;;;;15.48;13.85;;;;;;;9.15;98.99;100995.06;4812146;29;20654;-84
2022/12/28 11:19:24;;;;;;;11.85;9.38;;;;;;;9.16;98.94;100997.66;4809625;29;20045;-84
2022/12/28 11:21:52;;;;;;;10.93;9.20;;;;;;;9.14;98.84;100991.59;4801435;29;20043;-87
2022/12/28 11:24:25;;;;;;;3.42;2.35;;;;;;;9.16;98.85;100991.53;4799597;29;20048;-85
2022/12/28 11:26:54;;;;;;;2.38;1.90;;;;;;;9.18;98.57;100981.84;4807850;29;20144;-84
2022/12/28 11:29:23;;;;;;;6.32;4.00;;;;;;;9.15;98.34;100974.03;4808402;29;20054;-83
2022/12/28 11:32:03;;;;;;;4.60;3.78;;;;;;;9.15;98.67;100974.03;4796477;29;20043;-83
2022/12/28 11:34:31;;;;;;;4.03;2.30;;;;;;;9.14;98.60;100982.81;4793934;29;20067;-82
2022/12/28 11:36:58;;;;;;;3.10;2.58;;;;;;;9.13;98.25;100970.56;4810697;29;20062;-82
2022/12/28 11:39:25;;;;;;;6.47;4.70;;;;;;;9.13;98.88;100968.81;4795693;29;20055;-81
2022/12/28 11:41:55;;;;;;;3.13;2.50;;;;;;;9.16;98.55;100965.25;4809877;29;20055;-82
2022/12/28 11:44:45;;;;;;;4.82;1.92;;;;;;;9.17;98.42;100959.09;4806388;29;20544;-79
2022/12/28 11:47:15;;;;;;;2.50;1.42;;;;;;;9.16;98.47;100957.34;4805345;29;20048;-78
2022/12/28 11:49:47;;;;;;;3.13;2.10;;;;;;;9.15;98.62;100950.34;4804065;29;20047;-78
2022/12/28 11:52:19;;;;;;;3.97;2.00;;;;;;;9.20;98.70;100955.50;4803480;29;20035;-76
2022/12/28 11:54:50;;;;;;;5.90;3.10;;;;;;;9.21;98.42;100950.19;4792011;29;20051;-79
2022/12/28 11:57:42;;;;;;;4.85;1.50;;;;;;;9.22;98.18;100957.19;4804442;29;20043;-77
2022/12/28 12:00:22;;;;;;;4.15;2.15;;;;;;;9.28;97.79;100943.91;4803929;29;20412;-76
2022/12/28 12:02:59;;;;;;;2.28;1.40;;;;;;;9.32;97.88;100948.19;4798620;29;20056;-75
2022/12/28 12:05:36;;;;;;;3.35;1.42;;;;;;;9.37;97.73;100948.09;4796912;29;20482;-76
2022/12/28 12:08:09;;;;;;;4.47;1.40;;;;;;;9.36;97.72;100943.72;4789296;29;20060;-74
2022/12/28 12:10:38;;;;;;;4.43;1.60;;;;;;;9.36;97.26;100943.72;4800263;29;20048;-77
2022/12/28 12:13:24;;;;;;;3.20;1.30;;;;;;;9.38;97.47;100933.19;4800611;29;20055;-75
2022/12/28 12:16:02;;;;;;;3.92;1.50;;;;;;;9.38;97.32;100935.81;4804618;29;20583;-80
2022/12/28 12:18:49;;;;;;;2.60;1.60;;;;;;;9.37;97.58;100927.03;4803770;29;20105;-77
2022/12/28 12:21:43;;;;;;;3.60;1.50;;;;;;;9.41;97.11;100922.59;4804209;29;20502;-76
2022/12/28 12:24:40;;;;;;;3.50;1.60;;;;;;;9.40;96.95;100915.59;4788808;29;20125;-77
2022/12/28 12:27:37;;;;;;;4.28;1.50;;;;;;;9.35;96.88;100910.44;4801400;29;20517;-76